Bakersfield, CA (93308)

12:29 PM PDT on April 25, 2015 (GMT -0700)
North Hills | | Change Station
CLOSE
Current Station
Personal Weather Station
Location: Bakersfield, CA
Elevation: 722 ft
Nearby Weather Stations

Elev 722 ft 35.45 °N, 119.02 °W | Updated 1 second ago

Overcast
Overcast
60.4 °F
Feels Like 60.4 °F
N
0.0
Wind Variable Wind from South
Gusts 4.5 mph

Today
High -- | Low -- °F
--% Chance of Precip.
Yesterday
High -- | Low -- °F
Precip. -- in
6:11 AM 7:37 PM
Waxing Crescent, 48% visible
Pressure 29.94 in
Visibility 10.0 miles
Clouds Overcast 2800 ft
Dew Point 51 °F
Humidity 71%
Rainfall in
Snow Depth Not available.
UV 3 out of 12
Pollen 7.80 out of 12
Air Quality Not available.
Flu Activity Sporadic
SPECI KBFL 251919Z 00000KT 10SM -RA OVC028 16/08 A2994 RMK AO2 P0000 T01560083

More Conditions Fewer Conditions

Pressure 29.94 in
Visibility 10.0 miles
Clouds Overcast 2800 ft
Dew Point 51 °F
Humidity 71%
Rainfall in
Snow Depth Not available.
UV 3 out of 12
Pollen 7.80 out of 12
Air Quality Not available.
Flu Activity Sporadic
SPECI KBFL 251919Z 00000KT 10SM -RA OVC028 16/08 A2994 RMK AO2 P0000 T01560083

More Conditions Fewer Conditions

10-Day Weather Forecast

Almanac

Astronomy

Apr. 25, 2015 Rise Set
Actual Time
Civil Twilight
Nautical Twilight
Astronomical Twilight
Moon
Length of Visible Light
Length of Day
Tomorrow will be .
, % of the Moon is Illuminated

Today's Extremes

State Highs State Lows

Community

WunderPhotos

Upload Photos

1,816,781 photos uploaded!

WunderBlogs® & News

Nearby

Air Quality

  Air Quality AQ Index Pollutant
Not available.

Snow Depth

Station Depth Elevation

Earthquake Activity

City Distance Mag. Time & Date
Minimum magnitude displayed is 2.5.

Coastal Water Temperatures

Place Temperature

Stations

Nearby Weather Stations

Station Location Temp. Windchill Dew Point Humidity Wind Precip. Elev Updated Type